createdAt,value
2019-01-05T00:01:20.067Z,29.59
2019-01-05T00:04:23.554Z,29.52
2019-01-05T00:07:10.578Z,29.59
2019-01-05T00:09:57.521Z,29.60
2019-01-05T00:12:50.321Z,29.55
2019-01-05T00:15:38.739Z,29.57
2019-01-05T00:18:22.578Z,29.48
2019-01-05T00:20:59.936Z,29.50
2019-01-05T00:23:54.368Z,29.52
2019-01-05T00:26:45.983Z,29.54
2019-01-05T00:29:40.754Z,29.43
2019-01-05T00:32:38.946Z,29.50
2019-01-05T00:35:40.880Z,29.46
2019-01-05T00:38:27.882Z,29.41
2019-01-05T00:41:28.480Z,29.50
2019-01-05T00:44:05.291Z,29.51
2019-01-05T00:46:58.103Z,29.50
2019-01-05T00:49:45.201Z,29.52
2019-01-05T00:52:33.586Z,29.54
2019-01-05T00:55:22.095Z,29.57
2019-01-05T00:58:13.325Z,29.64
2019-01-05T01:01:00.291Z,29.71
2019-01-05T01:03:57.910Z,29.64
2019-01-05T01:07:01.309Z,29.56
2019-01-05T01:09:49.810Z,29.57
2019-01-05T01:12:38.020Z,29.56
2019-01-05T01:15:25.375Z,29.57
2019-01-05T01:18:12.804Z,29.49
2019-01-05T01:21:10.578Z,29.57
2019-01-05T01:23:54.271Z,29.65
2019-01-05T01:26:41.256Z,29.68
2019-01-05T01:29:41.725Z,29.63
2019-01-05T01:32:39.170Z,29.61
2019-01-05T01:35:26.349Z,29.58
2019-01-05T01:38:34.567Z,29.56
2019-01-05T01:41:20.018Z,29.59
2019-01-05T01:44:20.491Z,29.68
2019-01-05T01:47:08.334Z,29.77
2019-01-05T01:50:14.934Z,29.75
2019-01-05T01:53:02.320Z,29.78
2019-01-05T01:55:50.731Z,29.64
2019-01-05T01:58:43.509Z,29.67
2019-01-05T02:01:37.859Z,29.71
2019-01-05T02:04:25.091Z,29.67
2019-01-05T02:07:13.537Z,29.63
2019-01-05T02:10:04.995Z,29.58
2019-01-05T02:13:11.969Z,29.64
2019-01-05T02:16:12.516Z,29.65
2019-01-05T02:19:35.867Z,29.61
2019-01-05T02:23:12.599Z,29.51
2019-01-05T02:26:31.516Z,29.62
2019-01-05T02:29:56.171Z,29.59
2019-01-05T02:33:22.480Z,29.61
2019-01-05T02:36:43.066Z,29.73
2019-01-05T02:40:14.447Z,29.66
2019-01-05T02:44:06.776Z,29.63
2019-01-05T02:47:35.804Z,29.64
2019-01-05T02:50:54.763Z,29.71
2019-01-05T02:54:32.814Z,29.87
2019-01-05T02:58:21.894Z,29.89
2019-01-05T03:02:06.139Z,29.91
2019-01-05T03:05:36.196Z,29.90
2019-01-05T03:09:10.415Z,30.00
2019-01-05T03:12:43.475Z,29.93
2019-01-05T03:16:12.885Z,29.85
2019-01-05T03:19:50.537Z,29.87
2019-01-05T03:23:16.280Z,29.92
2019-01-05T03:27:01.300Z,29.81
2019-01-05T03:30:41.569Z,29.51
2019-01-05T03:34:08.391Z,30.26
2019-01-05T03:37:46.740Z,30.44
2019-01-05T03:41:16.171Z,30.36
2019-01-05T03:45:08.398Z,30.25
2019-01-05T03:48:51.309Z,30.17
2019-01-05T03:52:12.779Z,30.08
2019-01-05T03:55:33.799Z,30.23
2019-01-05T03:59:04.721Z,30.31
2019-01-05T04:02:40.686Z,30.37
2019-01-05T04:06:11.384Z,30.15
2019-01-05T04:09:58.594Z,30.02
2019-01-05T04:13:42.308Z,29.96
2019-01-05T04:16:58.457Z,29.82
2019-01-05T04:20:23.643Z,29.88
2019-01-05T04:24:22.358Z,29.92
2019-01-05T04:27:51.658Z,29.84
2019-01-05T04:31:40.801Z,29.96
2019-01-05T04:35:08.862Z,29.86
2019-01-05T04:38:50.063Z,29.91
2019-01-05T04:42:17.936Z,29.85
2019-01-05T04:45:38.139Z,29.85
2019-01-05T04:49:05.155Z,29.73
2019-01-05T04:52:49.889Z,29.87
2019-01-05T04:56:16.633Z,29.74
2019-01-05T04:59:51.012Z,29.68
2019-01-05T05:03:09.089Z,29.71
2019-01-05T05:06:24.727Z,29.59
2019-01-05T05:09:48.544Z,29.58
2019-01-05T05:13:09.565Z,29.59
2019-01-05T05:16:39.384Z,29.67
2019-01-05T05:20:12.705Z,29.59
2019-01-05T05:23:44.131Z,29.49
2019-01-05T05:27:10.722Z,29.31
2019-01-05T05:30:37.954Z,29.22
2019-01-05T05:34:01.261Z,29.24
2019-01-05T05:38:04.098Z,29.25
2019-01-05T05:41:37.669Z,29.10
2019-01-05T05:45:02.729Z,28.84
2019-01-05T05:48:31.164Z,28.96
2019-01-05T05:51:58.062Z,28.83
2019-01-05T05:55:23.285Z,29.12
2019-01-05T05:58:43.532Z,29.28
2019-01-05T06:02:07.652Z,28.17
2019-01-05T06:06:00.248Z,28.83
2019-01-05T06:09:44.282Z,29.13
2019-01-05T06:12:53.163Z,29.13
2019-01-05T06:16:16.323Z,24.75
2019-01-05T06:19:25.715Z,26.16
2019-01-05T06:22:44.637Z,27.22
2019-01-05T06:26:06.413Z,27.24
2019-01-05T06:29:21.279Z,27.50
2019-01-05T06:32:56.659Z,27.52
2019-01-05T06:36:35.880Z,27.85
2019-01-05T06:39:53.313Z,27.46
2019-01-05T06:43:29.683Z,27.48
2019-01-05T06:46:52.785Z,27.54
2019-01-05T06:50:15.481Z,27.29
2019-01-05T06:54:05.007Z,27.62
2019-01-05T06:57:32.923Z,27.36
2019-01-05T07:01:00.245Z,27.24
2019-01-05T07:04:10.553Z,27.34
2019-01-05T07:08:07.126Z,27.17
2019-01-05T07:11:31.687Z,27.44
2019-01-05T07:15:20.559Z,27.07
2019-01-05T07:18:58.093Z,27.09
2019-01-05T07:22:28.779Z,27.19
2019-01-05T07:25:56.991Z,27.06
2019-01-05T07:29:20.122Z,27.18
2019-01-05T07:33:11.916Z,26.84
2019-01-05T07:36:53.077Z,26.92
2019-01-05T07:40:19.075Z,26.96
2019-01-05T07:44:01.125Z,27.17
2019-01-05T07:47:26.815Z,26.98
2019-01-05T07:50:56.818Z,26.67
2019-01-05T07:54:25.039Z,26.82
2019-01-05T07:57:49.043Z,26.83
2019-01-05T08:01:36.219Z,26.87
2019-01-05T08:04:46.666Z,26.77
2019-01-05T08:08:15.987Z,26.76
2019-01-05T08:11:40.036Z,26.70
2019-01-05T08:15:23.326Z,26.65
2019-01-05T08:18:58.749Z,26.61
2019-01-05T08:22:32.094Z,26.55
2019-01-05T08:26:28.543Z,26.58
2019-01-05T08:29:52.042Z,26.58
2019-01-05T08:33:39.142Z,26.52
2019-01-05T08:37:16.167Z,26.49
2019-01-05T08:41:12.422Z,26.57
2019-01-05T08:44:42.743Z,26.52
2019-01-05T08:48:02.983Z,26.36
2019-01-05T08:51:29.833Z,26.42
2019-01-05T08:55:12.786Z,26.42
2019-01-05T08:58:53.323Z,25.58
2019-01-05T09:02:24.260Z,25.46
2019-01-05T09:05:58.180Z,27.09
2019-01-05T09:09:18.242Z,28.13
2019-01-05T09:12:41.022Z,27.84
2019-01-05T09:16:04.922Z,30.12
2019-01-05T09:19:38.355Z,29.04
2019-01-05T09:23:12.806Z,29.04
2019-01-05T09:26:55.423Z,29.14
2019-01-05T09:30:27.544Z,28.73
2019-01-05T09:34:00.184Z,28.38
2019-01-05T09:37:20.820Z,28.48
2019-01-05T09:40:32.000Z,28.02
2019-01-05T09:43:56.831Z,27.96
2019-01-05T09:47:34.650Z,27.69
2019-01-05T09:50:55.417Z,27.57
2019-01-05T09:54:36.209Z,27.34
2019-01-05T09:58:15.175Z,27.13
2019-01-05T10:01:38.204Z,27.20
2019-01-05T10:05:06.153Z,26.98
2019-01-05T10:08:46.132Z,26.79
2019-01-05T10:12:26.063Z,26.92
2019-01-05T10:16:13.136Z,26.87
2019-01-05T10:19:55.963Z,26.82
2019-01-05T10:23:37.021Z,26.96
2019-01-05T10:27:06.793Z,26.42
2019-01-05T10:30:21.329Z,26.05
2019-01-05T10:34:07.445Z,26.44
2019-01-05T10:37:54.675Z,26.87
2019-01-05T10:41:56.674Z,26.94
2019-01-05T10:45:10.321Z,26.96
2019-01-05T10:49:12.770Z,27.13
2019-01-05T10:52:52.698Z,24.99
2019-01-05T10:56:44.536Z,22.72
2019-01-05T11:00:01.438Z,21.58
2019-01-05T11:03:35.543Z,24.11
2019-01-05T11:07:17.304Z,23.51
2019-01-05T11:10:47.272Z,21.42
2019-01-05T11:14:36.844Z,21.38
2019-01-05T11:18:13.753Z,21.01
2019-01-05T11:21:57.604Z,21.25
2019-01-05T11:25:40.963Z,21.34
2019-01-05T11:28:57.449Z,22.12
2019-01-05T11:32:38.829Z,23.00
2019-01-05T11:35:57.368Z,23.31
2019-01-05T11:39:30.385Z,24.71
2019-01-05T11:42:47.125Z,25.04
2019-01-05T11:46:23.703Z,24.87
2019-01-05T11:49:59.805Z,24.84
2019-01-05T11:53:20.691Z,24.84
2019-01-05T11:57:14.039Z,25.31
2019-01-05T12:00:58.902Z,25.17
2019-01-05T12:04:55.024Z,24.75
2019-01-05T12:08:24.268Z,25.11
2019-01-05T12:11:49.156Z,25.39
2019-01-05T12:15:23.425Z,25.53
2019-01-05T12:18:37.389Z,21.13
2019-01-05T12:22:09.529Z,23.63
2019-01-05T12:25:48.308Z,24.67
2019-01-05T12:29:35.429Z,25.24
2019-01-05T12:32:58.360Z,25.11
2019-01-05T12:36:28.372Z,25.30
2019-01-05T12:39:44.401Z,25.48
2019-01-05T12:43:15.592Z,25.68
2019-01-05T12:46:56.562Z,25.85
2019-01-05T12:50:30.292Z,26.25
2019-01-05T12:54:21.172Z,26.21
2019-01-05T12:58:04.865Z,26.45
2019-01-05T13:01:18.973Z,26.37
2019-01-05T13:04:49.648Z,26.60
2019-01-05T13:08:29.973Z,26.71
2019-01-05T13:12:19.701Z,26.60
2019-01-05T13:16:03.881Z,26.84
2019-01-05T13:19:25.263Z,26.87
2019-01-05T13:22:59.942Z,27.03
2019-01-05T13:26:31.068Z,26.88
2019-01-05T13:30:01.025Z,26.94
2019-01-05T13:33:28.007Z,27.02
2019-01-05T13:36:54.100Z,26.89
2019-01-05T13:40:21.499Z,26.76
2019-01-05T13:43:52.692Z,26.92
2019-01-05T13:47:19.577Z,27.07
2019-01-05T13:50:57.337Z,27.15
2019-01-05T13:54:08.257Z,27.05
2019-01-05T13:57:01.201Z,26.98
2019-01-05T14:00:07.902Z,27.07
2019-01-05T14:03:11.606Z,27.13
2019-01-05T14:05:58.785Z,27.16
2019-01-05T14:08:52.277Z,26.97
2019-01-05T14:11:40.846Z,27.00
2019-01-05T14:14:35.207Z,26.99
2019-01-05T14:17:26.819Z,27.05
2019-01-05T14:20:27.623Z,27.24
2019-01-05T14:23:25.361Z,27.19
2019-01-05T14:26:16.952Z,27.12
2019-01-05T14:29:04.095Z,27.10
2019-01-05T14:32:07.741Z,27.03
2019-01-05T14:35:05.182Z,27.27
2019-01-05T14:38:02.890Z,27.28
2019-01-05T14:40:57.438Z,27.03
2019-01-05T14:43:44.463Z,27.13
2019-01-05T14:46:31.743Z,27.01
2019-01-05T14:49:27.886Z,27.15
2019-01-05T14:52:15.072Z,27.55
2019-01-05T14:55:03.253Z,27.46
2019-01-05T14:58:00.511Z,27.75
2019-01-05T15:00:48.126Z,27.73
2019-01-05T15:03:42.669Z,29.32
2019-01-05T15:06:29.950Z,28.23
2019-01-05T15:09:24.451Z,29.06
2019-01-05T15:12:11.661Z,29.61
2019-01-05T15:14:58.413Z,28.73
2019-01-05T15:17:55.775Z,28.75
2019-01-05T15:20:42.840Z,28.79
2019-01-05T15:23:31.390Z,28.95
2019-01-05T15:26:15.518Z,28.97
2019-01-05T15:29:19.392Z,29.16
2019-01-05T15:32:10.840Z,29.21
2019-01-05T15:35:05.592Z,29.51
2019-01-05T15:37:47.612Z,29.85
2019-01-05T15:40:45.046Z,29.72
2019-01-05T15:43:51.916Z,29.87
2019-01-05T15:46:43.307Z,29.90
2019-01-05T15:49:31.886Z,30.06
2019-01-05T15:52:23.367Z,30.26
2019-01-05T15:55:11.846Z,30.60
2019-01-05T15:57:59.381Z,30.91
2019-01-05T16:00:50.584Z,30.83
2019-01-05T16:03:39.032Z,30.92
2019-01-05T16:06:26.278Z,30.98
2019-01-05T16:09:13.650Z,31.03
2019-01-05T16:12:14.155Z,31.25
2019-01-05T16:15:09.458Z,31.44
2019-01-05T16:17:56.614Z,31.65
2019-01-05T16:20:54.044Z,31.69
2019-01-05T16:23:54.650Z,33.10
2019-01-05T16:26:49.802Z,34.16
2019-01-05T16:29:38.330Z,32.13
2019-01-05T16:32:25.866Z,31.98
2019-01-05T16:35:13.219Z,31.76
2019-01-05T16:38:01.740Z,31.89
2019-01-05T16:40:50.056Z,31.92
2019-01-05T16:43:50.828Z,31.87
2019-01-05T16:46:45.116Z,31.90
2019-01-05T16:49:32.371Z,31.82
2019-01-05T16:52:32.349Z,32.98
2019-01-05T16:55:19.534Z,33.50
2019-01-05T16:58:16.847Z,32.25
2019-01-05T17:01:14.388Z,32.36
2019-01-05T17:04:02.859Z,32.09
2019-01-05T17:06:51.353Z,32.22
2019-01-05T17:09:54.977Z,32.50
2019-01-05T17:12:43.670Z,33.27
2019-01-05T17:15:32.286Z,33.62
2019-01-05T17:18:20.671Z,33.20
2019-01-05T17:21:07.950Z,33.18
2019-01-05T17:23:55.326Z,33.90
2019-01-05T17:26:37.929Z,34.31
2019-01-05T17:29:38.765Z,33.38
2019-01-05T17:32:42.230Z,33.72
2019-01-05T17:35:29.314Z,34.17
2019-01-05T17:38:27.190Z,33.58
2019-01-05T17:41:14.213Z,33.91
2019-01-05T17:44:11.659Z,34.23
2019-01-05T17:46:50.166Z,34.69
2019-01-05T17:49:37.870Z,34.95
2019-01-05T17:52:25.181Z,34.55
2019-01-05T17:55:28.918Z,34.46
2019-01-05T17:58:17.093Z,34.36
2019-01-05T18:01:17.450Z,33.96
2019-01-05T18:04:04.792Z,34.89
2019-01-05T18:06:52.161Z,36.20
2019-01-05T18:09:40.503Z,35.56
2019-01-05T18:12:47.227Z,35.06
2019-01-05T18:15:34.344Z,35.10
2019-01-05T18:18:21.402Z,35.29
2019-01-05T18:21:12.724Z,34.99
2019-01-05T18:24:07.247Z,35.65
2019-01-05T18:26:54.545Z,36.07
2019-01-05T18:29:42.962Z,35.54
2019-01-05T18:32:49.594Z,36.01
2019-01-05T18:35:38.014Z,35.09
2019-01-05T18:38:18.564Z,35.87
2019-01-05T18:41:23.821Z,35.65
2019-01-05T18:44:24.522Z,35.50
2019-01-05T18:47:11.520Z,35.67
2019-01-05T18:50:07.527Z,35.46
2019-01-05T18:52:54.375Z,35.38
2019-01-05T18:55:51.767Z,35.24
2019-01-05T18:58:40.235Z,35.39
2019-01-05T19:01:37.626Z,35.21
2019-01-05T19:04:37.991Z,36.19
2019-01-05T19:07:25.109Z,34.81
2019-01-05T19:10:16.468Z,34.89
2019-01-05T19:13:03.513Z,35.39
2019-01-05T19:16:00.824Z,35.34
2019-01-05T19:18:55.346Z,35.46
2019-01-05T19:21:52.733Z,36.50
2019-01-05T19:24:42.640Z,33.88
2019-01-05T19:27:24.558Z,35.14
2019-01-05T19:30:18.472Z,35.26
2019-01-05T19:33:05.792Z,35.19
2019-01-05T19:35:52.902Z,35.53
2019-01-05T19:38:48.362Z,35.53
2019-01-05T19:41:37.792Z,35.36
2019-01-05T19:44:32.192Z,35.47
2019-01-05T19:47:38.873Z,34.23
2019-01-05T19:50:33.402Z,33.74
2019-01-05T19:53:24.281Z,34.80
2019-01-05T19:56:24.873Z,34.07
2019-01-05T19:59:11.957Z,34.52
2019-01-05T20:02:00.427Z,34.87
2019-01-05T20:04:48.825Z,35.38
2019-01-05T20:07:37.209Z,35.90
2019-01-05T20:10:41.847Z,35.35
2019-01-05T20:13:29.071Z,35.50
2019-01-05T20:16:11.026Z,36.74
2019-01-05T20:19:02.121Z,34.16
2019-01-05T20:21:59.873Z,33.08
2019-01-05T20:24:51.429Z,33.67
2019-01-05T20:27:38.810Z,32.97
2019-01-05T20:30:34.444Z,34.10
2019-01-05T20:33:28.966Z,34.25
2019-01-05T20:36:20.343Z,34.47
2019-01-05T20:39:10.968Z,34.90
2019-01-05T20:42:11.327Z,35.56
2019-01-05T20:44:58.826Z,34.92
2019-01-05T20:47:46.684Z,34.74
2019-01-05T20:50:50.659Z,35.47
2019-01-05T20:53:38.015Z,34.85
2019-01-05T20:56:25.501Z,34.70
2019-01-05T20:59:12.845Z,34.66
2019-01-05T21:01:59.863Z,35.69
2019-01-05T21:05:06.826Z,35.48
2019-01-05T21:07:58.296Z,35.44
2019-01-05T21:10:45.517Z,34.70
2019-01-05T21:13:31.032Z,34.22
2019-01-05T21:16:18.201Z,33.95
2019-01-05T21:19:21.754Z,33.79
2019-01-05T21:22:05.834Z,33.40
2019-01-05T21:24:53.902Z,33.51
2019-01-05T21:28:21.889Z,33.39
2019-01-05T21:31:19.538Z,33.38
2019-01-05T21:34:35.173Z,33.49
2019-01-05T21:37:29.621Z,33.03
2019-01-05T21:40:20.790Z,33.05
2019-01-05T21:43:08.111Z,33.13
2019-01-05T21:45:55.406Z,32.75
2019-01-05T21:48:51.388Z,32.14
2019-01-05T21:51:45.999Z,32.12
2019-01-05T21:54:34.301Z,32.09
2019-01-05T21:57:24.186Z,32.19
2019-01-05T22:00:11.389Z,32.14
2019-01-05T22:03:02.776Z,31.87
2019-01-05T22:05:58.346Z,31.81
2019-01-05T22:08:46.812Z,31.66
2019-01-05T22:11:30.446Z,31.85
2019-01-05T22:14:18.871Z,31.73
2019-01-05T22:17:13.426Z,31.44
2019-01-05T22:20:00.508Z,31.23
2019-01-05T22:22:49.098Z,31.08
2019-01-05T22:25:26.384Z,31.20
2019-01-05T22:28:13.685Z,31.13
2019-01-05T22:31:20.052Z,31.05
2019-01-05T22:34:17.817Z,30.92
2019-01-05T22:37:18.178Z,30.68
2019-01-05T22:40:17.940Z,30.72
2019-01-05T22:43:01.794Z,30.62
2019-01-05T22:45:55.377Z,30.45
2019-01-05T22:48:51.919Z,30.47
2019-01-05T22:51:39.946Z,30.63
2019-01-05T22:54:36.297Z,30.66
2019-01-05T22:57:23.784Z,30.58
2019-01-05T23:00:18.214Z,30.47
2019-01-05T23:03:15.254Z,30.28
2019-01-05T23:06:00.343Z,30.17
2019-01-05T23:08:47.307Z,30.08
2019-01-05T23:11:50.586Z,29.94
2019-01-05T23:14:44.996Z,29.89
2019-01-05T23:17:36.487Z,29.85
2019-01-05T23:20:37.186Z,29.84
2019-01-05T23:23:40.553Z,29.84
2019-01-05T23:26:41.215Z,29.57
2019-01-05T23:29:28.346Z,29.61
2019-01-05T23:32:16.802Z,29.19
2019-01-05T23:35:11.121Z,29.35
2019-01-05T23:38:17.668Z,29.37
2019-01-05T23:41:06.184Z,29.32
2019-01-05T23:43:54.667Z,29.56
2019-01-05T23:46:57.253Z,29.43
2019-01-05T23:50:04.146Z,29.55
2019-01-05T23:52:49.504Z,29.47
2019-01-05T23:55:40.973Z,29.42
2019-01-05T23:58:45.284Z,29.37
